I2476 LICR-LMML
Flight info
| Callsign | I2476 |
|---|---|
| Flight time | N/A |
| Altitude | 25000 |
| Route | DCT SOPOM DCT GUDER |
| Aircraft | A320/M-S/7123 |
Departure
| Time | N/A |
|---|---|
| Airport | Reggio Calabria Airport (LICR) |
Arrival
| Time | 2026-04-28 17:31 |
|---|---|
| Airport | Malta International Airport (LMML) |
| Time | Latitude | Longitude | Altitude | Speed | Heading |
|---|---|---|---|---|---|
| 2026-04-28 17:05 | 37.73849 | 15.27193 | 0 ft | 350 kts | 205° |
| 2026-04-28 17:05 | 37.71624 | 15.25968 | 0 ft | 356 kts | 205° |
| 2026-04-28 17:05 | 37.69394 | 15.24743 | 0 ft | 362 kts | 205° |
| 2026-04-28 17:06 | 37.64892 | 15.22276 | 0 ft | 371 kts | 205° |
| 2026-04-28 17:06 | 37.62541 | 15.20991 | 0 ft | 375 kts | 205° |
| 2026-04-28 17:06 | 37.57705 | 15.18349 | 0 ft | 380 kts | 205° |
| 2026-04-28 17:07 | 37.55318 | 15.17046 | 0 ft | 382 kts | 205° |
| 2026-04-28 17:07 | 37.52887 | 15.15720 | 0 ft | 384 kts | 205° |
| 2026-04-28 17:07 | 37.50835 | 15.14601 | 0 ft | 385 kts | 205° |
| 2026-04-28 17:07 | 37.48447 | 15.13300 | 0 ft | 386 kts | 205° |
| 2026-04-28 17:08 | 37.46012 | 15.11975 | 0 ft | 386 kts | 205° |
| 2026-04-28 17:08 | 37.43595 | 15.10659 | 0 ft | 386 kts | 205° |
| 2026-04-28 17:08 | 37.41185 | 15.09349 | 0 ft | 386 kts | 205° |
| 2026-04-28 17:08 | 37.38739 | 15.08019 | 0 ft | 385 kts | 205° |
| 2026-04-28 17:09 | 37.36307 | 15.06698 | 0 ft | 384 kts | 205° |
| 2026-04-28 17:09 | 37.33953 | 15.05420 | 0 ft | 383 kts | 205° |
| 2026-04-28 17:09 | 37.31563 | 15.04123 | 0 ft | 382 kts | 205° |
| 2026-04-28 17:09 | 37.29172 | 15.02826 | 0 ft | 380 kts | 205° |
| 2026-04-28 17:10 | 37.26792 | 15.01536 | 0 ft | 378 kts | 205° |
| 2026-04-28 17:10 | 37.24399 | 15.00240 | 0 ft | 375 kts | 205° |
| 2026-04-28 17:10 | 37.21997 | 14.98940 | 0 ft | 378 kts | 205° |
| 2026-04-28 17:10 | 37.19648 | 14.97668 | 0 ft | 385 kts | 205° |
| 2026-04-28 17:11 | 37.17196 | 14.96341 | 0 ft | 394 kts | 205° |
| 2026-04-28 17:11 | 37.14700 | 14.94990 | 0 ft | 408 kts | 205° |
| 2026-04-28 17:11 | 37.12041 | 14.93549 | 0 ft | 437 kts | 204° |
| 2026-04-28 17:11 | 37.09188 | 14.92007 | 0 ft | 457 kts | 204° |
| 2026-04-28 17:12 | 37.06353 | 14.90479 | 0 ft | 451 kts | 204° |
| 2026-04-28 17:12 | 37.03555 | 14.88976 | 0 ft | 443 kts | 204° |
| 2026-04-28 17:12 | 37.00840 | 14.87519 | 0 ft | 438 kts | 204° |
| 2026-04-28 17:12 | 36.98074 | 14.86036 | 0 ft | 433 kts | 204° |
| 2026-04-28 17:13 | 36.95327 | 14.84564 | 0 ft | 428 kts | 204° |
| 2026-04-28 17:13 | 36.92642 | 14.83127 | 0 ft | 422 kts | 204° |
| 2026-04-28 17:13 | 36.89971 | 14.81698 | 0 ft | 418 kts | 204° |
| 2026-04-28 17:13 | 36.87320 | 14.80280 | 0 ft | 417 kts | 204° |
| 2026-04-28 17:14 | 36.84693 | 14.78874 | 0 ft | 418 kts | 204° |
| 2026-04-28 17:14 | 36.82018 | 14.77443 | 0 ft | 419 kts | 204° |
| 2026-04-28 17:14 | 36.79355 | 14.76020 | 0 ft | 420 kts | 204° |
| 2026-04-28 17:14 | 36.76712 | 14.74609 | 0 ft | 420 kts | 204° |
| 2026-04-28 17:15 | 36.74056 | 14.73191 | 0 ft | 420 kts | 204° |
| 2026-04-28 17:15 | 36.71382 | 14.71765 | 0 ft | 419 kts | 204° |
| 2026-04-28 17:15 | 36.68769 | 14.70373 | 0 ft | 419 kts | 204° |
| 2026-04-28 17:15 | 36.66181 | 14.68994 | 0 ft | 420 kts | 204° |
| 2026-04-28 17:16 | 36.63521 | 14.67579 | 0 ft | 420 kts | 204° |
| 2026-04-28 17:16 | 36.60940 | 14.66207 | 0 ft | 420 kts | 204° |
| 2026-04-28 17:16 | 36.58334 | 14.64822 | 0 ft | 420 kts | 204° |
| 2026-04-28 17:16 | 36.55689 | 14.63419 | 0 ft | 419 kts | 204° |
| 2026-04-28 17:17 | 36.53006 | 14.61995 | 0 ft | 419 kts | 204° |
| 2026-04-28 17:17 | 36.50445 | 14.60639 | 0 ft | 403 kts | 204° |
| 2026-04-28 17:17 | 36.47939 | 14.59315 | 0 ft | 390 kts | 204° |
| 2026-04-28 17:17 | 36.45520 | 14.58037 | 0 ft | 379 kts | 204° |
| 2026-04-28 17:18 | 36.43118 | 14.56769 | 0 ft | 367 kts | 204° |
| 2026-04-28 17:18 | 36.41065 | 14.55685 | 0 ft | 355 kts | 204° |
| 2026-04-28 17:18 | 36.38871 | 14.54527 | 0 ft | 344 kts | 204° |
| 2026-04-28 17:18 | 36.36854 | 14.53463 | 0 ft | 334 kts | 205° |
| 2026-04-28 17:19 | 36.35012 | 14.52490 | 0 ft | 325 kts | 205° |
| 2026-04-28 17:19 | 36.33232 | 14.51551 | 0 ft | 317 kts | 205° |
| 2026-04-28 17:19 | 36.31344 | 14.50554 | 0 ft | 309 kts | 205° |
| 2026-04-28 17:19 | 36.29605 | 14.49635 | 0 ft | 303 kts | 205° |
| 2026-04-28 17:20 | 36.27889 | 14.48729 | 0 ft | 297 kts | 205° |
| 2026-04-28 17:20 | 36.26671 | 14.48087 | 0 ft | 292 kts | 205° |
| 2026-04-28 17:20 | 36.24391 | 14.46884 | 0 ft | 285 kts | 205° |
| 2026-04-28 17:20 | 36.22765 | 14.46027 | 0 ft | 274 kts | 205° |
| 2026-04-28 17:21 | 36.21256 | 14.45233 | 0 ft | 264 kts | 205° |
| 2026-04-28 17:21 | 36.19716 | 14.44422 | 0 ft | 264 kts | 205° |
| 2026-04-28 17:21 | 36.18313 | 14.43682 | 0 ft | 264 kts | 205° |
| 2026-04-28 17:22 | 36.16118 | 14.42525 | 0 ft | 265 kts | 205° |
| 2026-04-28 17:22 | 36.14326 | 14.41579 | 0 ft | 276 kts | 205° |
| 2026-04-28 17:22 | 36.13106 | 14.40890 | 0 ft | 281 kts | 208° |
| 2026-04-28 17:23 | 36.10734 | 14.39142 | 0 ft | 287 kts | 217° |
| 2026-04-28 17:23 | 36.09417 | 14.37887 | 0 ft | 289 kts | 221° |
| 2026-04-28 17:23 | 36.08025 | 14.36354 | 0 ft | 290 kts | 224° |
| 2026-04-28 17:23 | 36.07205 | 14.35390 | 0 ft | 286 kts | 225° |
| 2026-04-28 17:24 | 36.05983 | 14.33907 | 0 ft | 272 kts | 226° |
| 2026-04-28 17:24 | 36.05076 | 14.32784 | 0 ft | 258 kts | 227° |
| 2026-04-28 17:24 | 36.04278 | 14.31786 | 0 ft | 244 kts | 227° |
| 2026-04-28 17:24 | 36.03652 | 14.31002 | 0 ft | 233 kts | 227° |
| 2026-04-28 17:25 | 36.02578 | 14.29744 | 0 ft | 215 kts | 212° |
| 2026-04-28 17:25 | 36.00384 | 14.29893 | 0 ft | 207 kts | 146° |
| 2026-04-28 17:25 | 35.99695 | 14.30599 | 0 ft | 214 kts | 139° |
| 2026-04-28 17:26 | 35.98722 | 14.31715 | 0 ft | 203 kts | 138° |
| 2026-04-28 17:26 | 35.97872 | 14.32735 | 0 ft | 198 kts | 137° |
| 2026-04-28 17:26 | 35.97001 | 14.33811 | 0 ft | 198 kts | 136° |
| 2026-04-28 17:26 | 35.96195 | 14.34819 | 0 ft | 197 kts | 136° |
| 2026-04-28 17:27 | 35.95391 | 14.35820 | 0 ft | 178 kts | 137° |
| 2026-04-28 17:27 | 35.94711 | 14.36670 | 0 ft | 170 kts | 137° |
| 2026-04-28 17:27 | 35.93955 | 14.37597 | 0 ft | 176 kts | 137° |
| 2026-04-28 17:27 | 35.93254 | 14.38463 | 0 ft | 152 kts | 137° |
| 2026-04-28 17:28 | 35.92601 | 14.39271 | 0 ft | 153 kts | 137° |
| 2026-04-28 17:28 | 35.91336 | 14.40830 | 0 ft | 152 kts | 137° |
| 2026-04-28 17:28 | 35.90691 | 14.41627 | 0 ft | 148 kts | 137° |
| 2026-04-28 17:29 | 35.90101 | 14.42361 | 0 ft | 145 kts | 137° |
| 2026-04-28 17:29 | 35.89502 | 14.43104 | 0 ft | 143 kts | 138° |
| 2026-04-28 17:29 | 35.88885 | 14.43867 | 0 ft | 141 kts | 138° |
| 2026-04-28 17:30 | 35.87669 | 14.45374 | 0 ft | 127 kts | 137° |
| 2026-04-28 17:30 | 35.86509 | 14.46804 | 0 ft | 128 kts | 137° |
| 2026-04-28 17:30 | 35.85997 | 14.47436 | 0 ft | 131 kts | 137° |
| 2026-04-28 17:31 | 35.85469 | 14.48086 | 0 ft | 107 kts | 137° |
| 2026-04-28 17:31 | 35.85031 | 14.48750 | 0 ft | 33 kts | 110° |
| 2026-04-28 17:32 | 35.84913 | 14.49185 | 0 ft | 22 kts | 79° |
| 2026-04-28 17:32 | 35.84869 | 14.49316 | 0 ft | 15 kts | 147° |
| 2026-04-28 17:32 | 35.84867 | 14.49376 | 0 ft | 6 kts | 61° |
| 2026-04-28 17:32 | 35.84883 | 14.49395 | 0 ft | 2 kts | 14° |
| 2026-04-28 17:33 | 35.84910 | 14.49397 | 0 ft | 0 kts | 359° |